sensor_id;sensor_type;location;lat;lon;timestamp;P1;durP1;ratioP1;P2;durP2;ratioP2
25657;SDS011;13517;59.320;18.042;2023-05-10T00:01:18;15.32;;;7.97;;
25657;SDS011;13517;59.320;18.042;2023-05-10T00:03:43;13.30;;;7.57;;
25657;SDS011;13517;59.320;18.042;2023-05-10T00:06:08;20.23;;;7.78;;
25657;SDS011;13517;59.320;18.042;2023-05-10T00:08:34;20.35;;;8.02;;
25657;SDS011;13517;59.320;18.042;2023-05-10T00:10:59;16.55;;;7.20;;
25657;SDS011;13517;59.320;18.042;2023-05-10T00:13:25;20.45;;;8.75;;
25657;SDS011;13517;59.320;18.042;2023-05-10T00:15:50;16.30;;;7.47;;
25657;SDS011;13517;59.320;18.042;2023-05-10T00:18:15;13.82;;;7.38;;
25657;SDS011;13517;59.320;18.042;2023-05-10T00:20:41;13.60;;;7.85;;
25657;SDS011;13517;59.320;18.042;2023-05-10T00:23:06;15.15;;;8.43;;
25657;SDS011;13517;59.320;18.042;2023-05-10T00:25:31;17.58;;;7.43;;
25657;SDS011;13517;59.320;18.042;2023-05-10T00:27:57;19.38;;;9.00;;
25657;SDS011;13517;59.320;18.042;2023-05-10T00:30:22;14.75;;;7.78;;
25657;SDS011;13517;59.320;18.042;2023-05-10T00:32:47;16.52;;;7.82;;
25657;SDS011;13517;59.320;18.042;2023-05-10T00:35:14;17.83;;;8.23;;
25657;SDS011;13517;59.320;18.042;2023-05-10T00:37:40;16.77;;;8.90;;
25657;SDS011;13517;59.320;18.042;2023-05-10T00:40:05;17.17;;;8.45;;
25657;SDS011;13517;59.320;18.042;2023-05-10T00:42:31;16.25;;;8.38;;
25657;SDS011;13517;59.320;18.042;2023-05-10T00:44:56;16.23;;;9.82;;
25657;SDS011;13517;59.320;18.042;2023-05-10T00:47:22;13.90;;;7.88;;
25657;SDS011;13517;59.320;18.042;2023-05-10T00:49:47;15.88;;;8.32;;
25657;SDS011;13517;59.320;18.042;2023-05-10T00:52:13;18.58;;;9.73;;
25657;SDS011;13517;59.320;18.042;2023-05-10T00:54:38;22.38;;;8.85;;
25657;SDS011;13517;59.320;18.042;2023-05-10T00:57:03;17.17;;;8.02;;
25657;SDS011;13517;59.320;18.042;2023-05-10T00:59:29;14.32;;;8.50;;
25657;SDS011;13517;59.320;18.042;2023-05-10T01:01:54;19.23;;;8.50;;
25657;SDS011;13517;59.320;18.042;2023-05-10T01:04:19;16.13;;;8.18;;
25657;SDS011;13517;59.320;18.042;2023-05-10T01:06:50;17.98;;;8.77;;
25657;SDS011;13517;59.320;18.042;2023-05-10T01:09:15;17.25;;;8.20;;
25657;SDS011;13517;59.320;18.042;2023-05-10T01:11:41;18.27;;;7.68;;
25657;SDS011;13517;59.320;18.042;2023-05-10T01:14:06;14.93;;;9.30;;
25657;SDS011;13517;59.320;18.042;2023-05-10T01:16:32;20.17;;;8.88;;
25657;SDS011;13517;59.320;18.042;2023-05-10T01:18:58;18.05;;;8.68;;
25657;SDS011;13517;59.320;18.042;2023-05-10T01:21:30;18.95;;;8.80;;
25657;SDS011;13517;59.320;18.042;2023-05-10T01:32:30;15.38;;;8.32;;
25657;SDS011;13517;59.320;18.042;2023-05-10T01:34:46;20.40;;;9.18;;
25657;SDS011;13517;59.320;18.042;2023-05-10T01:37:15;13.65;;;8.38;;
25657;SDS011;13517;59.320;18.042;2023-05-10T01:42:09;16.10;;;8.88;;
25657;SDS011;13517;59.320;18.042;2023-05-10T01:44:37;15.68;;;8.77;;
25657;SDS011;13517;59.320;18.042;2023-05-10T01:47:05;14.30;;;8.77;;
25657;SDS011;13517;59.320;18.042;2023-05-10T01:49:32;16.92;;;9.45;;
25657;SDS011;13517;59.320;18.042;2023-05-10T01:52:00;17.27;;;9.40;;
25657;SDS011;13517;59.320;18.042;2023-05-10T01:54:28;24.75;;;9.25;;
25657;SDS011;13517;59.320;18.042;2023-05-10T01:57:01;20.65;;;9.43;;
25657;SDS011;13517;59.320;18.042;2023-05-10T02:01:53;15.13;;;8.70;;
25657;SDS011;13517;59.320;18.042;2023-05-10T02:04:19;19.45;;;9.68;;
25657;SDS011;13517;59.320;18.042;2023-05-10T02:06:45;21.15;;;9.63;;
25657;SDS011;13517;59.320;18.042;2023-05-10T02:09:11;17.90;;;9.43;;
25657;SDS011;13517;59.320;18.042;2023-05-10T02:11:38;21.55;;;10.02;;
25657;SDS011;13517;59.320;18.042;2023-05-10T02:14:05;23.30;;;10.57;;
25657;SDS011;13517;59.320;18.042;2023-05-10T02:16:31;20.00;;;10.55;;
25657;SDS011;13517;59.320;18.042;2023-05-10T02:18:57;19.23;;;10.55;;
25657;SDS011;13517;59.320;18.042;2023-05-10T02:21:24;18.58;;;10.63;;
25657;SDS011;13517;59.320;18.042;2023-05-10T02:23:51;18.23;;;9.63;;
25657;SDS011;13517;59.320;18.042;2023-05-10T02:26:16;16.75;;;10.00;;
25657;SDS011;13517;59.320;18.042;2023-05-10T02:28:43;17.58;;;9.90;;
25657;SDS011;13517;59.320;18.042;2023-05-10T02:31:08;21.42;;;10.13;;
25657;SDS011;13517;59.320;18.042;2023-05-10T02:33:35;17.00;;;9.05;;
25657;SDS011;13517;59.320;18.042;2023-05-10T02:36:02;21.45;;;10.88;;
25657;SDS011;13517;59.320;18.042;2023-05-10T02:38:28;18.52;;;10.18;;
25657;SDS011;13517;59.320;18.042;2023-05-10T02:40:55;17.35;;;9.77;;
25657;SDS011;13517;59.320;18.042;2023-05-10T02:43:21;18.13;;;10.00;;
25657;SDS011;13517;59.320;18.042;2023-05-10T02:45:48;18.08;;;9.43;;
25657;SDS011;13517;59.320;18.042;2023-05-10T02:48:13;33.83;;;11.52;;
25657;SDS011;13517;59.320;18.042;2023-05-10T02:50:38;21.50;;;9.90;;
25657;SDS011;13517;59.320;18.042;2023-05-10T02:53:09;16.50;;;9.35;;
25657;SDS011;13517;59.320;18.042;2023-05-10T02:55:36;15.65;;;10.27;;
25657;SDS011;13517;59.320;18.042;2023-05-10T02:58:02;19.20;;;9.55;;
25657;SDS011;13517;59.320;18.042;2023-05-10T03:00:28;20.02;;;9.52;;
25657;SDS011;13517;59.320;18.042;2023-05-10T03:02:53;19.38;;;9.68;;
25657;SDS011;13517;59.320;18.042;2023-05-10T03:05:19;19.08;;;9.35;;
25657;SDS011;13517;59.320;18.042;2023-05-10T03:07:44;18.08;;;10.45;;
25657;SDS011;13517;59.320;18.042;2023-05-10T03:10:10;23.83;;;9.23;;
25657;SDS011;13517;59.320;18.042;2023-05-10T03:20:15;14.18;;;8.52;;
25657;SDS011;13517;59.320;18.042;2023-05-10T03:22:44;20.08;;;8.27;;
25657;SDS011;13517;59.320;18.042;2023-05-10T03:25:10;13.38;;;9.00;;
25657;SDS011;13517;59.320;18.042;2023-05-10T03:27:37;24.88;;;9.52;;
25657;SDS011;13517;59.320;18.042;2023-05-10T03:30:04;16.15;;;8.45;;
25657;SDS011;13517;59.320;18.042;2023-05-10T03:32:30;18.65;;;8.73;;
25657;SDS011;13517;59.320;18.042;2023-05-10T03:34:57;21.58;;;9.25;;
25657;SDS011;13517;59.320;18.042;2023-05-10T03:37:22;14.05;;;8.82;;
25657;SDS011;13517;59.320;18.042;2023-05-10T03:39:48;20.90;;;9.57;;
25657;SDS011;13517;59.320;18.042;2023-05-10T03:42:13;19.42;;;8.55;;
25657;SDS011;13517;59.320;18.042;2023-05-10T03:44:39;17.40;;;8.88;;
25657;SDS011;13517;59.320;18.042;2023-05-10T03:47:04;14.98;;;8.90;;
25657;SDS011;13517;59.320;18.042;2023-05-10T03:49:29;17.10;;;10.20;;
25657;SDS011;13517;59.320;18.042;2023-05-10T03:51:54;17.90;;;8.80;;
25657;SDS011;13517;59.320;18.042;2023-05-10T03:54:20;20.90;;;9.38;;
25657;SDS011;13517;59.320;18.042;2023-05-10T03:56:45;20.17;;;9.80;;
25657;SDS011;13517;59.320;18.042;2023-05-10T03:59:12;21.48;;;9.18;;
25657;SDS011;13517;59.320;18.042;2023-05-10T04:01:38;12.00;;;7.50;;
25657;SDS011;13517;59.320;18.042;2023-05-10T04:04:03;18.90;;;8.68;;
25657;SDS011;13517;59.320;18.042;2023-05-10T04:06:28;18.08;;;8.75;;
25657;SDS011;13517;59.320;18.042;2023-05-10T04:08:53;14.60;;;7.78;;
25657;SDS011;13517;59.320;18.042;2023-05-10T04:11:20;18.77;;;8.93;;
25657;SDS011;13517;59.320;18.042;2023-05-10T04:13:46;17.38;;;8.52;;
25657;SDS011;13517;59.320;18.042;2023-05-10T04:16:12;16.13;;;8.40;;
25657;SDS011;13517;59.320;18.042;2023-05-10T04:18:37;13.52;;;8.45;;
25657;SDS011;13517;59.320;18.042;2023-05-10T04:21:03;21.00;;;8.27;;
25657;SDS011;13517;59.320;18.042;2023-05-10T04:23:28;14.05;;;8.05;;
25657;SDS011;13517;59.320;18.042;2023-05-10T04:25:58;12.55;;;8.00;;
25657;SDS011;13517;59.320;18.042;2023-05-10T04:28:24;22.95;;;8.32;;
25657;SDS011;13517;59.320;18.042;2023-05-10T04:30:49;24.83;;;9.65;;
25657;SDS011;13517;59.320;18.042;2023-05-10T04:33:14;25.27;;;8.40;;
25657;SDS011;13517;59.320;18.042;2023-05-10T04:35:40;29.27;;;8.85;;
25657;SDS011;13517;59.320;18.042;2023-05-10T04:38:05;17.02;;;7.55;;
25657;SDS011;13517;59.320;18.042;2023-05-10T04:40:31;16.65;;;7.70;;
25657;SDS011;13517;59.320;18.042;2023-05-10T04:42:56;21.05;;;7.68;;
25657;SDS011;13517;59.320;18.042;2023-05-10T04:45:21;26.85;;;8.27;;
25657;SDS011;13517;59.320;18.042;2023-05-10T04:47:47;14.38;;;6.90;;
25657;SDS011;13517;59.320;18.042;2023-05-10T04:50:12;21.70;;;8.02;;
25657;SDS011;13517;59.320;18.042;2023-05-10T04:52:37;19.07;;;7.10;;
25657;SDS011;13517;59.320;18.042;2023-05-10T04:55:03;21.00;;;7.20;;
25657;SDS011;13517;59.320;18.042;2023-05-10T04:57:28;15.10;;;6.90;;
25657;SDS011;13517;59.320;18.042;2023-05-10T04:59:53;16.23;;;7.30;;
25657;SDS011;13517;59.320;18.042;2023-05-10T05:02:18;10.60;;;6.65;;
25657;SDS011;13517;59.320;18.042;2023-05-10T05:04:44;19.92;;;6.47;;
25657;SDS011;13517;59.320;18.042;2023-05-10T05:07:09;24.40;;;6.85;;
25657;SDS011;13517;59.320;18.042;2023-05-10T05:09:34;12.50;;;7.00;;
25657;SDS011;13517;59.320;18.042;2023-05-10T05:12:00;15.20;;;6.00;;
25657;SDS011;13517;59.320;18.042;2023-05-10T05:14:25;20.55;;;6.18;;
25657;SDS011;13517;59.320;18.042;2023-05-10T05:16:51;10.17;;;5.80;;
25657;SDS011;13517;59.320;18.042;2023-05-10T05:19:17;16.20;;;6.40;;
25657;SDS011;13517;59.320;18.042;2023-05-10T05:21:42;14.20;;;6.15;;
25657;SDS011;13517;59.320;18.042;2023-05-10T05:24:08;17.63;;;7.03;;
25657;SDS011;13517;59.320;18.042;2023-05-10T05:26:33;14.38;;;5.88;;
25657;SDS011;13517;59.320;18.042;2023-05-10T05:28:58;13.73;;;6.13;;
25657;SDS011;13517;59.320;18.042;2023-05-10T05:31:24;18.30;;;6.60;;
25657;SDS011;13517;59.320;18.042;2023-05-10T05:33:49;8.73;;;5.45;;
25657;SDS011;13517;59.320;18.042;2023-05-10T05:36:14;17.50;;;5.90;;
25657;SDS011;13517;59.320;18.042;2023-05-10T05:38:39;11.85;;;5.80;;
25657;SDS011;13517;59.320;18.042;2023-05-10T05:41:05;9.52;;;5.40;;
25657;SDS011;13517;59.320;18.042;2023-05-10T05:43:30;20.30;;;5.70;;
25657;SDS011;13517;59.320;18.042;2023-05-10T05:45:55;17.08;;;5.38;;
25657;SDS011;13517;59.320;18.042;2023-05-10T05:48:22;12.55;;;5.90;;
25657;SDS011;13517;59.320;18.042;2023-05-10T05:50:48;17.30;;;6.25;;
25657;SDS011;13517;59.320;18.042;2023-05-10T05:53:13;16.95;;;5.78;;
25657;SDS011;13517;59.320;18.042;2023-05-10T05:55:38;18.05;;;6.30;;
25657;SDS011;13517;59.320;18.042;2023-05-10T05:58:03;11.93;;;5.07;;
25657;SDS011;13517;59.320;18.042;2023-05-10T06:00:29;14.18;;;5.75;;
25657;SDS011;13517;59.320;18.042;2023-05-10T06:02:54;14.38;;;5.90;;
25657;SDS011;13517;59.320;18.042;2023-05-10T06:05:19;18.92;;;6.63;;
25657;SDS011;13517;59.320;18.042;2023-05-10T06:07:45;13.02;;;5.53;;
25657;SDS011;13517;59.320;18.042;2023-05-10T06:10:11;13.68;;;5.07;;
25657;SDS011;13517;59.320;18.042;2023-05-10T06:12:36;10.13;;;5.32;;
25657;SDS011;13517;59.320;18.042;2023-05-10T06:15:02;13.13;;;4.90;;
25657;SDS011;13517;59.320;18.042;2023-05-10T06:17:27;8.77;;;5.07;;
25657;SDS011;13517;59.320;18.042;2023-05-10T06:19:52;11.57;;;5.10;;
25657;SDS011;13517;59.320;18.042;2023-05-10T06:22:17;21.52;;;5.97;;
25657;SDS011;13517;59.320;18.042;2023-05-10T06:24:43;14.00;;;5.90;;
25657;SDS011;13517;59.320;18.042;2023-05-10T06:27:08;14.25;;;5.88;;
25657;SDS011;13517;59.320;18.042;2023-05-10T06:29:33;10.85;;;4.85;;
25657;SDS011;13517;59.320;18.042;2023-05-10T06:31:59;18.55;;;5.40;;
25657;SDS011;13517;59.320;18.042;2023-05-10T06:34:24;10.80;;;4.90;;
25657;SDS011;13517;59.320;18.042;2023-05-10T06:36:49;12.95;;;5.00;;
25657;SDS011;13517;59.320;18.042;2023-05-10T06:39:15;10.15;;;5.95;;
25657;SDS011;13517;59.320;18.042;2023-05-10T06:41:40;25.83;;;6.25;;
25657;SDS011;13517;59.320;18.042;2023-05-10T06:44:06;16.20;;;4.85;;
25657;SDS011;13517;59.320;18.042;2023-05-10T06:46:31;10.77;;;4.80;;
25657;SDS011;13517;59.320;18.042;2023-05-10T06:48:56;10.57;;;5.07;;
25657;SDS011;13517;59.320;18.042;2023-05-10T06:51:22;22.48;;;5.30;;
25657;SDS011;13517;59.320;18.042;2023-05-10T06:53:53;13.50;;;4.80;;
25657;SDS011;13517;59.320;18.042;2023-05-10T06:56:18;9.80;;;4.63;;
25657;SDS011;13517;59.320;18.042;2023-05-10T06:58:46;16.60;;;4.47;;
25657;SDS011;13517;59.320;18.042;2023-05-10T07:01:11;17.35;;;5.57;;
25657;SDS011;13517;59.320;18.042;2023-05-10T07:03:37;14.20;;;4.32;;
25657;SDS011;13517;59.320;18.042;2023-05-10T07:06:02;18.67;;;5.10;;
25657;SDS011;13517;59.320;18.042;2023-05-10T07:08:31;12.50;;;4.88;;
25657;SDS011;13517;59.320;18.042;2023-05-10T07:11:03;11.73;;;4.88;;
25657;SDS011;13517;59.320;18.042;2023-05-10T07:13:29;12.93;;;4.50;;
25657;SDS011;13517;59.320;18.042;2023-05-10T07:15:55;16.17;;;4.63;;
25657;SDS011;13517;59.320;18.042;2023-05-10T07:18:20;21.25;;;5.10;;
25657;SDS011;13517;59.320;18.042;2023-05-10T07:20:46;11.32;;;4.95;;
25657;SDS011;13517;59.320;18.042;2023-05-10T07:23:11;33.08;;;6.43;;
25657;SDS011;13517;59.320;18.042;2023-05-10T07:25:36;16.60;;;5.22;;
25657;SDS011;13517;59.320;18.042;2023-05-10T07:28:02;9.57;;;4.32;;
25657;SDS011;13517;59.320;18.042;2023-05-10T07:30:27;12.00;;;5.18;;
25657;SDS011;13517;59.320;18.042;2023-05-10T07:32:53;13.30;;;4.57;;
25657;SDS011;13517;59.320;18.042;2023-05-10T07:35:18;12.82;;;4.47;;
25657;SDS011;13517;59.320;18.042;2023-05-10T07:37:43;15.87;;;4.27;;
25657;SDS011;13517;59.320;18.042;2023-05-10T07:40:08;13.25;;;4.20;;
25657;SDS011;13517;59.320;18.042;2023-05-10T07:42:34;13.23;;;4.72;;
25657;SDS011;13517;59.320;18.042;2023-05-10T07:44:59;12.18;;;5.15;;
25657;SDS011;13517;59.320;18.042;2023-05-10T07:47:24;21.65;;;4.88;;
25657;SDS011;13517;59.320;18.042;2023-05-10T07:49:50;17.70;;;4.40;;
25657;SDS011;13517;59.320;18.042;2023-05-10T07:52:15;11.77;;;5.63;;
25657;SDS011;13517;59.320;18.042;2023-05-10T07:54:40;19.10;;;4.28;;
25657;SDS011;13517;59.320;18.042;2023-05-10T07:57:05;18.23;;;4.10;;
25657;SDS011;13517;59.320;18.042;2023-05-10T07:59:31;8.52;;;4.63;;
25657;SDS011;13517;59.320;18.042;2023-05-10T08:01:57;11.50;;;4.60;;
25657;SDS011;13517;59.320;18.042;2023-05-10T08:04:22;12.30;;;4.13;;
25657;SDS011;13517;59.320;18.042;2023-05-10T08:06:47;10.20;;;4.73;;
25657;SDS011;13517;59.320;18.042;2023-05-10T08:09:12;7.78;;;3.70;;
25657;SDS011;13517;59.320;18.042;2023-05-10T08:11:38;21.67;;;4.97;;
25657;SDS011;13517;59.320;18.042;2023-05-10T08:14:03;8.90;;;5.20;;
25657;SDS011;13517;59.320;18.042;2023-05-10T08:16:28;16.15;;;4.85;;
25657;SDS011;13517;59.320;18.042;2023-05-10T08:18:54;8.30;;;3.95;;
25657;SDS011;13517;59.320;18.042;2023-05-10T08:21:20;13.38;;;3.95;;
25657;SDS011;13517;59.320;18.042;2023-05-10T08:23:45;9.60;;;4.60;;
25657;SDS011;13517;59.320;18.042;2023-05-10T08:26:10;11.60;;;4.85;;
25657;SDS011;13517;59.320;18.042;2023-05-10T08:28:36;11.38;;;4.40;;
25657;SDS011;13517;59.320;18.042;2023-05-10T08:31:01;13.32;;;4.72;;
25657;SDS011;13517;59.320;18.042;2023-05-10T08:33:26;12.90;;;4.43;;
25657;SDS011;13517;59.320;18.042;2023-05-10T08:35:52;7.55;;;4.68;;
25657;SDS011;13517;59.320;18.042;2023-05-10T08:38:17;11.77;;;4.57;;
25657;SDS011;13517;59.320;18.042;2023-05-10T08:40:43;11.35;;;5.28;;
25657;SDS011;13517;59.320;18.042;2023-05-10T08:43:09;11.48;;;4.55;;
25657;SDS011;13517;59.320;18.042;2023-05-10T08:45:39;11.52;;;4.30;;
25657;SDS011;13517;59.320;18.042;2023-05-10T08:48:05;14.75;;;4.80;;
25657;SDS011;13517;59.320;18.042;2023-05-10T08:50:31;11.55;;;4.07;;
25657;SDS011;13517;59.320;18.042;2023-05-10T08:52:57;11.85;;;4.85;;
25657;SDS011;13517;59.320;18.042;2023-05-10T08:55:24;12.75;;;4.32;;
25657;SDS011;13517;59.320;18.042;2023-05-10T08:57:49;12.07;;;4.88;;
25657;SDS011;13517;59.320;18.042;2023-05-10T09:00:14;7.82;;;4.45;;
25657;SDS011;13517;59.320;18.042;2023-05-10T09:02:40;14.35;;;5.05;;
25657;SDS011;13517;59.320;18.042;2023-05-10T09:05:07;18.85;;;4.45;;
25657;SDS011;13517;59.320;18.042;2023-05-10T09:07:32;8.60;;;4.50;;
25657;SDS011;13517;59.320;18.042;2023-05-10T09:09:57;12.60;;;4.80;;
25657;SDS011;13517;59.320;18.042;2023-05-10T09:12:23;7.57;;;4.13;;
25657;SDS011;13517;59.320;18.042;2023-05-10T09:14:48;11.32;;;4.25;;
25657;SDS011;13517;59.320;18.042;2023-05-10T09:17:15;11.38;;;4.30;;
25657;SDS011;13517;59.320;18.042;2023-05-10T09:19:40;10.60;;;4.35;;
25657;SDS011;13517;59.320;18.042;2023-05-10T09:22:06;12.77;;;4.38;;
25657;SDS011;13517;59.320;18.042;2023-05-10T09:24:31;14.07;;;4.47;;
25657;SDS011;13517;59.320;18.042;2023-05-10T09:26:56;10.77;;;3.83;;
25657;SDS011;13517;59.320;18.042;2023-05-10T09:29:22;10.95;;;4.28;;
25657;SDS011;13517;59.320;18.042;2023-05-10T09:31:48;8.07;;;4.18;;
25657;SDS011;13517;59.320;18.042;2023-05-10T09:34:19;8.80;;;4.45;;
25657;SDS011;13517;59.320;18.042;2023-05-10T09:36:53;8.68;;;4.03;;
25657;SDS011;13517;59.320;18.042;2023-05-10T09:39:18;8.35;;;4.30;;
25657;SDS011;13517;59.320;18.042;2023-05-10T09:41:44;66.95;;;7.55;;
25657;SDS011;13517;59.320;18.042;2023-05-10T09:44:09;17.77;;;5.20;;
25657;SDS011;13517;59.320;18.042;2023-05-10T09:46:35;16.67;;;4.38;;
25657;SDS011;13517;59.320;18.042;2023-05-10T09:49:01;16.48;;;4.47;;
25657;SDS011;13517;59.320;18.042;2023-05-10T09:51:26;22.67;;;5.50;;
25657;SDS011;13517;59.320;18.042;2023-05-10T09:54:11;15.95;;;4.30;;
25657;SDS011;13517;59.320;18.042;2023-05-10T09:56:37;8.18;;;4.10;;
25657;SDS011;13517;59.320;18.042;2023-05-10T09:59:04;10.50;;;4.22;;
25657;SDS011;13517;59.320;18.042;2023-05-10T10:01:29;22.63;;;5.53;;
25657;SDS011;13517;59.320;18.042;2023-05-10T10:03:55;13.98;;;4.70;;
25657;SDS011;13517;59.320;18.042;2023-05-10T10:06:22;12.25;;;4.43;;
25657;SDS011;13517;59.320;18.042;2023-05-10T10:08:48;16.17;;;6.13;;
25657;SDS011;13517;59.320;18.042;2023-05-10T10:11:13;13.00;;;4.60;;
25657;SDS011;13517;59.320;18.042;2023-05-10T10:13:39;11.55;;;4.70;;
25657;SDS011;13517;59.320;18.042;2023-05-10T10:16:04;14.27;;;4.15;;
25657;SDS011;13517;59.320;18.042;2023-05-10T10:18:30;9.95;;;4.60;;
25657;SDS011;13517;59.320;18.042;2023-05-10T10:20:55;13.55;;;4.47;;
25657;SDS011;13517;59.320;18.042;2023-05-10T10:23:21;55.97;;;8.38;;
25657;SDS011;13517;59.320;18.042;2023-05-10T10:25:46;17.35;;;5.32;;
25657;SDS011;13517;59.320;18.042;2023-05-10T10:28:24;15.85;;;4.68;;
25657;SDS011;13517;59.320;18.042;2023-05-10T10:30:51;56.55;;;7.75;;
25657;SDS011;13517;59.320;18.042;2023-05-10T10:33:36;12.25;;;4.10;;
25657;SDS011;13517;59.320;18.042;2023-05-10T10:36:03;11.13;;;4.35;;
25657;SDS011;13517;59.320;18.042;2023-05-10T10:49:25;6.10;;;3.80;;
25657;SDS011;13517;59.320;18.042;2023-05-10T10:54:35;11.85;;;4.22;;
25657;SDS011;13517;59.320;18.042;2023-05-10T10:57:10;19.15;;;4.72;;
25657;SDS011;13517;59.320;18.042;2023-05-10T10:59:35;12.02;;;4.13;;
25657;SDS011;13517;59.320;18.042;2023-05-10T11:02:01;14.52;;;4.10;;
25657;SDS011;13517;59.320;18.042;2023-05-10T11:04:27;11.15;;;4.90;;
25657;SDS011;13517;59.320;18.042;2023-05-10T11:06:52;11.93;;;4.13;;
25657;SDS011;13517;59.320;18.042;2023-05-10T11:09:41;10.50;;;4.00;;
25657;SDS011;13517;59.320;18.042;2023-05-10T11:12:08;9.18;;;3.88;;
25657;SDS011;13517;59.320;18.042;2023-05-10T11:14:33;18.95;;;5.22;;
25657;SDS011;13517;59.320;18.042;2023-05-10T11:16:58;8.80;;;4.30;;
25657;SDS011;13517;59.320;18.042;2023-05-10T11:19:23;18.25;;;4.10;;
25657;SDS011;13517;59.320;18.042;2023-05-10T11:22:11;10.73;;;4.20;;
25657;SDS011;13517;59.320;18.042;2023-05-10T11:24:38;22.92;;;4.78;;
25657;SDS011;13517;59.320;18.042;2023-05-10T11:27:03;7.75;;;3.65;;
25657;SDS011;13517;59.320;18.042;2023-05-10T11:29:28;6.90;;;3.80;;
25657;SDS011;13517;59.320;18.042;2023-05-10T11:31:56;13.93;;;4.95;;
25657;SDS011;13517;59.320;18.042;2023-05-10T11:34:25;10.40;;;4.28;;
25657;SDS011;13517;59.320;18.042;2023-05-10T11:36:51;14.77;;;3.95;;
25657;SDS011;13517;59.320;18.042;2023-05-10T11:39:18;10.52;;;3.90;;
25657;SDS011;13517;59.320;18.042;2023-05-10T11:41:44;37.03;;;5.68;;
25657;SDS011;13517;59.320;18.042;2023-05-10T11:44:12;33.47;;;4.68;;
25657;SDS011;13517;59.320;18.042;2023-05-10T11:46:37;21.97;;;4.37;;
25657;SDS011;13517;59.320;18.042;2023-05-10T11:49:02;14.93;;;4.47;;
25657;SDS011;13517;59.320;18.042;2023-05-10T11:51:33;13.68;;;4.47;;
25657;SDS011;13517;59.320;18.042;2023-05-10T11:53:58;11.32;;;3.63;;
25657;SDS011;13517;59.320;18.042;2023-05-10T11:56:23;7.27;;;4.57;;
25657;SDS011;13517;59.320;18.042;2023-05-10T11:58:54;22.52;;;5.35;;
25657;SDS011;13517;59.320;18.042;2023-05-10T12:01:20;15.05;;;4.50;;
25657;SDS011;13517;59.320;18.042;2023-05-10T12:03:46;9.43;;;4.55;;
25657;SDS011;13517;59.320;18.042;2023-05-10T12:06:11;8.35;;;4.35;;
25657;SDS011;13517;59.320;18.042;2023-05-10T12:08:37;13.63;;;4.90;;
25657;SDS011;13517;59.320;18.042;2023-05-10T12:11:09;10.60;;;3.75;;
25657;SDS011;13517;59.320;18.042;2023-05-10T12:13:38;9.15;;;4.53;;
25657;SDS011;13517;59.320;18.042;2023-05-10T12:16:21;21.80;;;4.80;;
25657;SDS011;13517;59.320;18.042;2023-05-10T12:18:50;15.23;;;4.00;;
25657;SDS011;13517;59.320;18.042;2023-05-10T12:21:16;7.25;;;3.78;;
25657;SDS011;13517;59.320;18.042;2023-05-10T12:23:41;13.30;;;3.55;;
25657;SDS011;13517;59.320;18.042;2023-05-10T12:26:09;12.10;;;4.50;;
25657;SDS011;13517;59.320;18.042;2023-05-10T12:28:35;20.73;;;4.43;;
25657;SDS011;13517;59.320;18.042;2023-05-10T12:31:01;14.15;;;4.03;;
25657;SDS011;13517;59.320;18.042;2023-05-10T12:33:27;18.38;;;4.72;;
25657;SDS011;13517;59.320;18.042;2023-05-10T12:35:53;14.45;;;4.07;;
25657;SDS011;13517;59.320;18.042;2023-05-10T12:40:50;13.35;;;4.00;;
25657;SDS011;13517;59.320;18.042;2023-05-10T12:43:15;8.13;;;3.58;;
25657;SDS011;13517;59.320;18.042;2023-05-10T12:45:40;12.63;;;3.70;;
25657;SDS011;13517;59.320;18.042;2023-05-10T12:48:06;13.40;;;3.63;;
25657;SDS011;13517;59.320;18.042;2023-05-10T12:50:31;5.80;;;3.60;;
25657;SDS011;13517;59.320;18.042;2023-05-10T12:52:56;8.03;;;3.90;;
25657;SDS011;13517;59.320;18.042;2023-05-10T12:55:21;15.70;;;4.28;;
25657;SDS011;13517;59.320;18.042;2023-05-10T12:57:47;7.60;;;3.53;;
25657;SDS011;13517;59.320;18.042;2023-05-10T13:00:12;16.13;;;3.67;;
25657;SDS011;13517;59.320;18.042;2023-05-10T13:02:37;6.57;;;3.53;;
25657;SDS011;13517;59.320;18.042;2023-05-10T13:05:03;11.23;;;3.20;;
25657;SDS011;13517;59.320;18.042;2023-05-10T13:07:28;16.02;;;3.50;;
25657;SDS011;13517;59.320;18.042;2023-05-10T13:09:53;9.43;;;4.27;;
25657;SDS011;13517;59.320;18.042;2023-05-10T13:12:18;8.27;;;4.17;;
25657;SDS011;13517;59.320;18.042;2023-05-10T13:14:44;10.85;;;3.45;;
25657;SDS011;13517;59.320;18.042;2023-05-10T13:17:09;19.63;;;3.50;;
25657;SDS011;13517;59.320;18.042;2023-05-10T13:19:34;12.38;;;4.35;;
25657;SDS011;13517;59.320;18.042;2023-05-10T13:22:00;11.45;;;4.15;;
25657;SDS011;13517;59.320;18.042;2023-05-10T13:24:25;10.23;;;3.20;;
25657;SDS011;13517;59.320;18.042;2023-05-10T13:26:50;12.93;;;4.18;;
25657;SDS011;13517;59.320;18.042;2023-05-10T13:29:15;14.90;;;3.88;;
25657;SDS011;13517;59.320;18.042;2023-05-10T13:31:42;6.25;;;3.40;;
25657;SDS011;13517;59.320;18.042;2023-05-10T13:34:08;10.00;;;3.78;;
25657;SDS011;13517;59.320;18.042;2023-05-10T13:36:33;11.43;;;3.63;;
25657;SDS011;13517;59.320;18.042;2023-05-10T13:38:58;8.63;;;3.50;;
25657;SDS011;13517;59.320;18.042;2023-05-10T13:41:26;8.30;;;3.55;;
25657;SDS011;13517;59.320;18.042;2023-05-10T13:43:51;18.70;;;4.50;;
25657;SDS011;13517;59.320;18.042;2023-05-10T13:46:17;14.53;;;4.00;;
25657;SDS011;13517;59.320;18.042;2023-05-10T13:48:42;12.38;;;3.70;;
25657;SDS011;13517;59.320;18.042;2023-05-10T13:51:07;9.85;;;3.58;;
25657;SDS011;13517;59.320;18.042;2023-05-10T13:53:32;12.82;;;3.78;;
25657;SDS011;13517;59.320;18.042;2023-05-10T13:55:58;6.88;;;3.67;;
25657;SDS011;13517;59.320;18.042;2023-05-10T13:58:23;8.90;;;3.40;;
25657;SDS011;13517;59.320;18.042;2023-05-10T14:00:48;10.20;;;3.87;;
25657;SDS011;13517;59.320;18.042;2023-05-10T14:03:14;11.27;;;3.53;;
25657;SDS011;13517;59.320;18.042;2023-05-10T14:05:39;12.52;;;3.28;;
25657;SDS011;13517;59.320;18.042;2023-05-10T14:08:04;7.63;;;3.50;;
25657;SDS011;13517;59.320;18.042;2023-05-10T14:10:30;7.65;;;3.63;;
25657;SDS011;13517;59.320;18.042;2023-05-10T14:12:55;8.40;;;3.40;;
25657;SDS011;13517;59.320;18.042;2023-05-10T14:15:20;5.80;;;3.25;;
25657;SDS011;13517;59.320;18.042;2023-05-10T14:17:46;6.78;;;3.30;;
25657;SDS011;13517;59.320;18.042;2023-05-10T14:20:11;10.20;;;3.00;;
25657;SDS011;13517;59.320;18.042;2023-05-10T14:22:36;6.88;;;3.38;;
25657;SDS011;13517;59.320;18.042;2023-05-10T14:25:01;5.88;;;3.22;;
25657;SDS011;13517;59.320;18.042;2023-05-10T14:27:27;11.18;;;3.13;;
25657;SDS011;13517;59.320;18.042;2023-05-10T14:29:52;8.68;;;3.40;;
25657;SDS011;13517;59.320;18.042;2023-05-10T14:32:18;10.63;;;3.75;;
25657;SDS011;13517;59.320;18.042;2023-05-10T14:34:43;8.68;;;3.35;;
25657;SDS011;13517;59.320;18.042;2023-05-10T14:37:10;7.50;;;3.38;;
25657;SDS011;13517;59.320;18.042;2023-05-10T14:39:35;9.65;;;3.42;;
25657;SDS011;13517;59.320;18.042;2023-05-10T14:42:00;11.13;;;3.00;;
25657;SDS011;13517;59.320;18.042;2023-05-10T14:44:27;4.28;;;3.60;;
25657;SDS011;13517;59.320;18.042;2023-05-10T14:46:52;15.30;;;3.97;;
25657;SDS011;13517;59.320;18.042;2023-05-10T14:49:18;9.13;;;3.22;;
25657;SDS011;13517;59.320;18.042;2023-05-10T14:51:43;9.73;;;3.20;;
25657;SDS011;13517;59.320;18.042;2023-05-10T14:54:09;12.20;;;3.75;;